PWSweather.com
Personal Weather Stations
Station Observations
MAHIABEACH
Mahia Beach, Mahia Peninsula Hawkes Bay -NZ 4108

Mahia BeachMahia Peninsula Hawkes Bay -NZ 4108

Lat: -39.087594, Lon: 177.87261128

Elevation: 20

Station Type: ScientificSales WS1093

http://wairoa.net/mahia/index.htm

Latest ConditionsUpdated 11:30:05 PM GMT+12:12 Saturday, Nov 1, 2014
Currently Today's Max Today's Min Today's Average
Temperature 52.3°F11.3°C 69.3°F20.7°C 52.3°F11.3°C 60.9°F16.1°C
Dew Point 52.1°F11.2°C 57.4°F14.1°C 49.1°F9.5°C 55.0°F12.8°C
Winds 0.3 mph NE0.5 kmh NE 9.8 mph NE15.8 kmh NE - 4.5 mph 7.2 kmh
Wind Gusts 1.6 mph2.6 kmh 19.7 mph31.7 kmh - -
Humidity 99% 99% 50% 83%
Pressure 29.99 in1015.6 mb 30.01 in1016.3 mb 29.96 in1014.6 mb -
Hour Temp Dew Point Humidity Winds Wind Gusts Pressure Precip Precip Rate Daily Precip Total
11:30 PM 52.3°F11.3°C 52.1°F11.2°C 99% 0.3 mph NE0.5 kmh NE 1.6 mph2.6 kmh 29.99 in1015.6 mb 0.00 in0.0 mm 0.00 in/hr0.0 mm/hr 0.00 in0.0 mm
11:15 PM 53.1°F11.7°C 52.8°F11.6°C 99% Calm Calm 2.2 mph3.5 kmh 30.00 in1015.9 mb 0.00 in0.0 mm 0.00 in/hr0.0 mm/hr 0.00 in0.0 mm
11:00 PM 54.3°F12.4°C 54.1°F12.3°C 99% 0.1 mph ENE0.2 kmh ENE 1.6 mph2.6 kmh 29.99 in1015.6 mb 0.00 in0.0 mm 0.00 in/hr0.0 mm/hr 0.00 in0.0 mm
10:45 PM 55.4°F13.0°C 55.1°F12.8°C 99% 0.8 mph W1.3 kmh W 3.1 mph5.0 kmh 29.99 in1015.6 mb 0.00 in0.0 mm 0.00 in/hr0.0 mm/hr 0.00 in0.0 mm
10:30 PM 55.6°F13.1°C 55.3°F12.9°C 99% 0.8 mph W1.3 kmh W 3.8 mph6.1 kmh 29.98 in1015.2 mb 0.00 in0.0 mm 0.00 in/hr0.0 mm/hr 0.00 in0.0 mm
10:15 PM 55.2°F12.9°C 55.0°F12.8°C 99% 0.2 mph NE0.3 kmh NE 2.2 mph3.5 kmh 29.99 in1015.6 mb 0.00 in0.0 mm 0.00 in/hr0.0 mm/hr 0.00 in0.0 mm
10:00 PM 55.6°F13.1°C 55.3°F12.9°C 99% 0.1 mph NNW0.2 kmh NNW 1.6 mph2.6 kmh 29.99 in1015.6 mb 0.00 in0.0 mm 0.00 in/hr0.0 mm/hr 0.00 in0.0 mm
09:45 PM 55.8°F13.2°C 55.5°F13.1°C 99% 0.1 mph N0.2 kmh N 2.2 mph3.5 kmh 29.99 in1015.6 mb 0.00 in0.0 mm 0.00 in/hr0.0 mm/hr 0.00 in0.0 mm
09:30 PM 56.1°F13.4°C 55.9°F13.3°C 99% 0.5 mph ENE0.8 kmh ENE 3.8 mph6.1 kmh 29.99 in1015.6 mb 0.00 in0.0 mm 0.00 in/hr0.0 mm/hr 0.00 in0.0 mm
09:15 PM 56.5°F13.6°C 56.2°F13.4°C 99% 0.2 mph N0.3 kmh N 1.6 mph2.6 kmh 30.00 in1015.9 mb 0.00 in0.0 mm 0.00 in/hr0.0 mm/hr 0.00 in0.0 mm
09:00 PM 56.7°F13.7°C 56.4°F13.6°C 99% 0.7 mph NE1.1 kmh NE 3.1 mph5.0 kmh 29.99 in1015.6 mb 0.00 in0.0 mm 0.00 in/hr0.0 mm/hr 0.00 in0.0 mm
08:45 PM 56.8°F13.8°C 56.6°F13.7°C 99% 0.9 mph NNE1.4 kmh NNE 3.8 mph6.1 kmh 30.00 in1015.9 mb 0.00 in0.0 mm 0.00 in/hr0.0 mm/hr 0.00 in0.0 mm
08:30 PM 57.0°F13.9°C 56.8°F13.8°C 99% 1.0 mph NNE1.6 kmh NNE 3.8 mph6.1 kmh 30.00 in1015.9 mb 0.00 in0.0 mm 0.00 in/hr0.0 mm/hr 0.00 in0.0 mm
08:15 PM 57.0°F13.9°C 56.8°F13.8°C 99% 1.2 mph NE1.9 kmh NE 5.4 mph8.7 kmh 30.00 in1015.9 mb 0.00 in0.0 mm 0.00 in/hr0.0 mm/hr 0.00 in0.0 mm
08:00 PM 57.2°F14.0°C 56.9°F13.8°C 99% 1.2 mph NE1.9 kmh NE 5.4 mph8.7 kmh 29.99 in1015.6 mb 0.00 in0.0 mm 0.00 in/hr0.0 mm/hr 0.00 in0.0 mm
07:45 PM 57.2°F14.0°C 56.9°F13.8°C 99% 0.7 mph N1.1 kmh N 6.0 mph9.7 kmh 29.99 in1015.6 mb 0.00 in0.0 mm 0.00 in/hr0.0 mm/hr 0.00 in0.0 mm
07:30 PM 57.4°F14.1°C 57.1°F13.9°C 99% 2.1 mph NE3.4 kmh NE 7.6 mph12.2 kmh 29.98 in1015.2 mb 0.00 in0.0 mm 0.00 in/hr0.0 mm/hr 0.00 in0.0 mm
07:15 PM 57.4°F14.1°C 57.1°F13.9°C 99% 1.9 mph NE3.1 kmh NE 6.9 mph11.1 kmh 29.98 in1015.2 mb 0.00 in0.0 mm 0.00 in/hr0.0 mm/hr 0.00 in0.0 mm
07:00 PM 57.6°F14.2°C 57.3°F14.1°C 99% 2.1 mph NE3.4 kmh NE 6.9 mph11.1 kmh 29.98 in1015.2 mb 0.00 in0.0 mm 0.00 in/hr0.0 mm/hr 0.00 in0.0 mm
06:45 PM 58.3°F14.6°C 57.4°F14.1°C 97% 2.7 mph NE4.3 kmh NE 7.6 mph12.2 kmh 29.98 in1015.2 mb 0.00 in0.0 mm 0.00 in/hr0.0 mm/hr 0.00 in0.0 mm
06:30 PM 58.8°F14.9°C 57.1°F13.9°C 94% 3.8 mph NE6.1 kmh NE 10.7 mph17.2 kmh 29.98 in1015.2 mb 0.00 in0.0 mm 0.00 in/hr0.0 mm/hr 0.00 in0.0 mm
06:15 PM 59.2°F15.1°C 56.9°F13.8°C 92% 6.5 mph NE10.5 kmh NE 15.2 mph24.5 kmh 29.97 in1014.9 mb 0.00 in0.0 mm 0.00 in/hr0.0 mm/hr 0.00 in0.0 mm
06:00 PM 59.7°F15.4°C 56.5°F13.6°C 89% 6.9 mph NE11.1 kmh NE 16.8 mph27.0 kmh 29.97 in1014.9 mb 0.00 in0.0 mm 0.00 in/hr0.0 mm/hr 0.00 in0.0 mm
05:45 PM 60.8°F16.0°C 56.3°F13.5°C 85% 7.2 mph NE11.6 kmh NE 18.3 mph29.5 kmh 29.97 in1014.9 mb 0.00 in0.0 mm 0.00 in/hr0.0 mm/hr 0.00 in0.0 mm
05:30 PM 63.0°F17.2°C 56.0°F13.3°C 78% 7.8 mph NE12.6 kmh NE 18.3 mph29.5 kmh 29.96 in1014.6 mb 0.00 in0.0 mm 0.00 in/hr0.0 mm/hr 0.00 in0.0 mm
05:15 PM 63.9°F17.7°C 55.8°F13.2°C 75% 6.8 mph NE10.9 kmh NE 15.9 mph25.6 kmh 29.96 in1014.6 mb 0.00 in0.0 mm 0.00 in/hr0.0 mm/hr 0.00 in0.0 mm
05:00 PM 64.2°F17.9°C 55.4°F13.0°C 73% 5.9 mph NE9.5 kmh NE 14.5 mph23.3 kmh 29.96 in1014.6 mb 0.00 in0.0 mm 0.00 in/hr0.0 mm/hr 0.00 in0.0 mm
04:45 PM 64.6°F18.1°C 55.7°F13.2°C 73% 6.6 mph NE10.6 kmh NE 15.9 mph25.6 kmh 29.97 in1014.9 mb 0.00 in0.0 mm 0.00 in/hr0.0 mm/hr 0.00 in0.0 mm
04:30 PM 63.9°F17.7°C 55.1°F12.8°C 73% 7.6 mph NE12.2 kmh NE 17.4 mph28.0 kmh 29.96 in1014.6 mb 0.00 in0.0 mm 0.00 in/hr0.0 mm/hr 0.00 in0.0 mm
04:15 PM 64.0°F17.8°C 55.2°F12.9°C 73% 8.0 mph NE12.9 kmh NE 18.3 mph29.5 kmh 29.96 in1014.6 mb 0.00 in0.0 mm 0.00 in/hr0.0 mm/hr 0.00 in0.0 mm
04:00 PM 64.6°F18.1°C 56.1°F13.4°C 74% 6.6 mph NE10.6 kmh NE 18.3 mph29.5 kmh 29.96 in1014.6 mb 0.00 in0.0 mm 0.00 in/hr0.0 mm/hr 0.00 in0.0 mm
03:45 PM 64.8°F18.2°C 55.9°F13.3°C 73% 6.9 mph NE11.1 kmh NE 17.4 mph28.0 kmh 29.96 in1014.6 mb 0.00 in0.0 mm 0.00 in/hr0.0 mm/hr 0.00 in0.0 mm
03:30 PM 64.2°F17.9°C 55.4°F13.0°C 73% 7.7 mph NE12.4 kmh NE 19.7 mph31.7 kmh 29.97 in1014.9 mb 0.00 in0.0 mm 0.00 in/hr0.0 mm/hr 0.00 in0.0 mm
03:15 PM 64.4°F18.0°C 55.6°F13.1°C 73% 7.7 mph NE12.4 kmh NE 19.7 mph31.7 kmh 29.96 in1014.6 mb 0.00 in0.0 mm 0.00 in/hr0.0 mm/hr 0.00 in0.0 mm
03:00 PM 65.5°F18.6°C 55.1°F12.8°C 69% 7.1 mph ENE11.4 kmh ENE 19.7 mph31.7 kmh 29.97 in1014.9 mb 0.00 in0.0 mm 0.00 in/hr0.0 mm/hr 0.00 in0.0 mm
02:45 PM 67.3°F19.6°C 55.6°F13.1°C 66% 5.9 mph NE9.5 kmh NE 15.2 mph24.5 kmh 29.97 in1014.9 mb 0.00 in0.0 mm 0.00 in/hr0.0 mm/hr 0.00 in0.0 mm
02:30 PM 66.4°F19.1°C 54.7°F12.6°C 66% 6.0 mph E9.7 kmh E 16.8 mph27.0 kmh 29.97 in1014.9 mb 0.00 in0.0 mm 0.00 in/hr0.0 mm/hr 0.00 in0.0 mm
02:15 PM 64.6°F18.1°C 53.8°F12.1°C 68% 9.1 mph NE14.6 kmh NE 19.7 mph31.7 kmh 29.98 in1015.2 mb 0.00 in0.0 mm 0.00 in/hr0.0 mm/hr 0.00 in0.0 mm
02:00 PM 64.0°F17.8°C 54.5°F12.5°C 71% 9.8 mph NE15.8 kmh NE 19.7 mph31.7 kmh 29.98 in1015.2 mb 0.00 in0.0 mm 0.00 in/hr0.0 mm/hr 0.00 in0.0 mm
01:45 PM 64.2°F17.9°C 53.9°F12.2°C 69% 9.2 mph NE14.8 kmh NE 19.7 mph31.7 kmh 29.99 in1015.6 mb 0.00 in0.0 mm 0.00 in/hr0.0 mm/hr 0.00 in0.0 mm
01:30 PM 64.2°F17.9°C 54.2°F12.3°C 70% 8.9 mph NE14.3 kmh NE 17.4 mph28.0 kmh 29.99 in1015.6 mb 0.00 in0.0 mm 0.00 in/hr0.0 mm/hr 0.00 in0.0 mm
01:15 PM 64.8°F18.2°C 53.2°F11.8°C 66% 9.0 mph ENE14.5 kmh ENE 18.3 mph29.5 kmh 30.00 in1015.9 mb 0.00 in0.0 mm 0.00 in/hr0.0 mm/hr 0.00 in0.0 mm
01:00 PM 65.7°F18.7°C 51.0°F10.6°C 59% 8.8 mph NE14.2 kmh NE 18.3 mph29.5 kmh 30.01 in1016.3 mb 0.00 in0.0 mm 0.00 in/hr0.0 mm/hr 0.00 in0.0 mm
12:45 PM 66.7°F19.3°C 49.1°F9.5°C 53% 7.3 mph ENE11.7 kmh ENE 15.9 mph25.6 kmh 30.01 in1016.3 mb 0.00 in0.0 mm 0.00 in/hr0.0 mm/hr 0.00 in0.0 mm
12:30 PM 68.7°F20.4°C 49.4°F9.7°C 50% 5.1 mph ENE8.2 kmh ENE 12.1 mph19.5 kmh 30.00 in1015.9 mb 0.00 in0.0 mm 0.00 in/hr0.0 mm/hr 0.00 in0.0 mm
12:15 PM 69.3°F20.7°C 50.9°F10.5°C 52% 4.3 mph ENE6.9 kmh ENE 12.1 mph19.5 kmh 30.00 in1015.9 mb 0.00 in0.0 mm 0.00 in/hr0.0 mm/hr 0.00 in0.0 mm
12:00 PM 68.2°F20.1°C 50.4°F10.2°C 53% 5.3 mph ENE8.5 kmh ENE 11.4 mph18.3 kmh 30.00 in1015.9 mb 0.00 in0.0 mm 0.00 in/hr0.0 mm/hr 0.00 in0.0 mm